sensor_id;sensor_type;location;lat;lon;timestamp;temperature;humidity
4687;DHT22;2357;47.316;-1.348;2023-07-13T00:00:25;19.10;99.90
4687;DHT22;2357;47.316;-1.348;2023-07-13T00:02:52;19.20;99.90
4687;DHT22;2357;47.316;-1.348;2023-07-13T00:05:22;19.10;99.90
4687;DHT22;2357;47.316;-1.348;2023-07-13T00:07:49;19.00;99.90
4687;DHT22;2357;47.316;-1.348;2023-07-13T00:10:15;19.00;99.90
4687;DHT22;2357;47.316;-1.348;2023-07-13T00:12:41;18.90;99.90
4687;DHT22;2357;47.316;-1.348;2023-07-13T00:15:15;18.80;99.90
4687;DHT22;2357;47.316;-1.348;2023-07-13T00:17:42;18.90;99.90
4687;DHT22;2357;47.316;-1.348;2023-07-13T00:20:10;18.80;99.90
4687;DHT22;2357;47.316;-1.348;2023-07-13T00:22:36;18.90;99.90
4687;DHT22;2357;47.316;-1.348;2023-07-13T00:25:02;18.80;99.90
4687;DHT22;2357;47.316;-1.348;2023-07-13T00:27:28;18.80;99.90
4687;DHT22;2357;47.316;-1.348;2023-07-13T00:29:57;18.70;99.90
4687;DHT22;2357;47.316;-1.348;2023-07-13T00:32:23;18.70;99.90
4687;DHT22;2357;47.316;-1.348;2023-07-13T00:34:51;18.70;99.90
4687;DHT22;2357;47.316;-1.348;2023-07-13T00:37:16;18.70;99.90
4687;DHT22;2357;47.316;-1.348;2023-07-13T00:39:42;18.60;99.90
4687;DHT22;2357;47.316;-1.348;2023-07-13T00:42:08;18.60;99.90
4687;DHT22;2357;47.316;-1.348;2023-07-13T00:44:33;18.60;99.90
4687;DHT22;2357;47.316;-1.348;2023-07-13T00:46:59;18.60;99.90
4687;DHT22;2357;47.316;-1.348;2023-07-13T00:49:27;18.50;99.90
4687;DHT22;2357;47.316;-1.348;2023-07-13T00:52:12;18.50;99.90
4687;DHT22;2357;47.316;-1.348;2023-07-13T00:54:41;18.50;99.90
4687;DHT22;2357;47.316;-1.348;2023-07-13T00:57:12;18.50;99.90
4687;DHT22;2357;47.316;-1.348;2023-07-13T00:59:42;18.50;99.90
4687;DHT22;2357;47.316;-1.348;2023-07-13T01:02:08;18.50;99.90
4687;DHT22;2357;47.316;-1.348;2023-07-13T01:04:34;18.40;99.90
4687;DHT22;2357;47.316;-1.348;2023-07-13T01:07:00;18.30;99.90
4687;DHT22;2357;47.316;-1.348;2023-07-13T01:09:26;18.20;99.90
4687;DHT22;2357;47.316;-1.348;2023-07-13T01:11:52;18.20;99.90
4687;DHT22;2357;47.316;-1.348;2023-07-13T01:14:18;18.10;99.90
4687;DHT22;2357;47.316;-1.348;2023-07-13T01:16:44;18.10;99.90
4687;DHT22;2357;47.316;-1.348;2023-07-13T01:22:05;18.00;99.90
4687;DHT22;2357;47.316;-1.348;2023-07-13T01:24:35;17.90;99.90
4687;DHT22;2357;47.316;-1.348;2023-07-13T01:27:01;17.90;99.90
4687;DHT22;2357;47.316;-1.348;2023-07-13T01:29:27;17.90;99.90
4687;DHT22;2357;47.316;-1.348;2023-07-13T01:31:53;17.90;99.90
4687;DHT22;2357;47.316;-1.348;2023-07-13T01:34:18;17.80;99.90
4687;DHT22;2357;47.316;-1.348;2023-07-13T01:36:44;17.80;99.90
4687;DHT22;2357;47.316;-1.348;2023-07-13T01:39:09;17.80;99.90
4687;DHT22;2357;47.316;-1.348;2023-07-13T01:41:35;17.80;99.90
4687;DHT22;2357;47.316;-1.348;2023-07-13T01:44:01;17.80;99.90
4687;DHT22;2357;47.316;-1.348;2023-07-13T01:46:26;17.70;99.90
4687;DHT22;2357;47.316;-1.348;2023-07-13T01:48:52;17.70;99.90
4687;DHT22;2357;47.316;-1.348;2023-07-13T01:51:19;17.70;99.90
4687;DHT22;2357;47.316;-1.348;2023-07-13T01:53:46;17.70;99.90
4687;DHT22;2357;47.316;-1.348;2023-07-13T01:56:11;17.70;99.90
4687;DHT22;2357;47.316;-1.348;2023-07-13T01:58:37;17.70;99.90
4687;DHT22;2357;47.316;-1.348;2023-07-13T02:01:03;17.60;99.90
4687;DHT22;2357;47.316;-1.348;2023-07-13T02:03:28;17.70;99.90
4687;DHT22;2357;47.316;-1.348;2023-07-13T02:05:54;17.70;99.90
4687;DHT22;2357;47.316;-1.348;2023-07-13T02:08:19;17.60;99.90
4687;DHT22;2357;47.316;-1.348;2023-07-13T02:10:45;17.60;99.90
4687;DHT22;2357;47.316;-1.348;2023-07-13T02:13:11;17.50;99.90
4687;DHT22;2357;47.316;-1.348;2023-07-13T02:15:40;17.50;99.90
4687;DHT22;2357;47.316;-1.348;2023-07-13T02:18:08;17.40;99.90
4687;DHT22;2357;47.316;-1.348;2023-07-13T02:20:34;17.20;99.90
4687;DHT22;2357;47.316;-1.348;2023-07-13T02:23:00;16.70;99.90
4687;DHT22;2357;47.316;-1.348;2023-07-13T02:25:26;17.00;99.90
4687;DHT22;2357;47.316;-1.348;2023-07-13T02:27:52;17.10;99.90
4687;DHT22;2357;47.316;-1.348;2023-07-13T02:30:19;17.20;99.90
4687;DHT22;2357;47.316;-1.348;2023-07-13T02:32:45;17.30;99.90
4687;DHT22;2357;47.316;-1.348;2023-07-13T02:35:11;17.30;99.90
4687;DHT22;2357;47.316;-1.348;2023-07-13T02:37:36;17.30;99.90
4687;DHT22;2357;47.316;-1.348;2023-07-13T02:40:02;17.30;99.90
4687;DHT22;2357;47.316;-1.348;2023-07-13T02:42:34;17.30;99.90
4687;DHT22;2357;47.316;-1.348;2023-07-13T02:44:59;17.10;99.90
4687;DHT22;2357;47.316;-1.348;2023-07-13T02:47:25;17.20;99.90
4687;DHT22;2357;47.316;-1.348;2023-07-13T02:49:52;17.20;99.90
4687;DHT22;2357;47.316;-1.348;2023-07-13T02:52:18;17.10;99.90
4687;DHT22;2357;47.316;-1.348;2023-07-13T02:54:43;16.70;99.90
4687;DHT22;2357;47.316;-1.348;2023-07-13T02:57:09;16.80;99.90
4687;DHT22;2357;47.316;-1.348;2023-07-13T02:59:35;16.90;99.90
4687;DHT22;2357;47.316;-1.348;2023-07-13T03:02:02;16.90;99.90
4687;DHT22;2357;47.316;-1.348;2023-07-13T03:04:27;17.00;99.90
4687;DHT22;2357;47.316;-1.348;2023-07-13T03:06:53;16.90;99.90
4687;DHT22;2357;47.316;-1.348;2023-07-13T03:09:24;17.00;99.90
4687;DHT22;2357;47.316;-1.348;2023-07-13T03:11:53;16.90;99.90
4687;DHT22;2357;47.316;-1.348;2023-07-13T03:14:19;16.90;99.90
4687;DHT22;2357;47.316;-1.348;2023-07-13T03:16:44;17.00;99.90
4687;DHT22;2357;47.316;-1.348;2023-07-13T03:19:10;17.00;99.90
4687;DHT22;2357;47.316;-1.348;2023-07-13T03:21:35;17.00;99.90
4687;DHT22;2357;47.316;-1.348;2023-07-13T03:24:01;17.00;99.90
4687;DHT22;2357;47.316;-1.348;2023-07-13T03:26:27;17.00;99.90
4687;DHT22;2357;47.316;-1.348;2023-07-13T03:28:52;17.00;99.90
4687;DHT22;2357;47.316;-1.348;2023-07-13T03:31:20;16.90;99.90
4687;DHT22;2357;47.316;-1.348;2023-07-13T03:33:47;16.90;99.90
4687;DHT22;2357;47.316;-1.348;2023-07-13T03:36:22;17.00;99.90
4687;DHT22;2357;47.316;-1.348;2023-07-13T03:38:54;16.90;99.90
4687;DHT22;2357;47.316;-1.348;2023-07-13T03:41:20;16.90;99.90
4687;DHT22;2357;47.316;-1.348;2023-07-13T03:43:46;16.90;99.90
4687;DHT22;2357;47.316;-1.348;2023-07-13T03:46:13;16.90;99.90
4687;DHT22;2357;47.316;-1.348;2023-07-13T03:48:40;16.90;99.90
4687;DHT22;2357;47.316;-1.348;2023-07-13T03:51:08;16.90;99.90
4687;DHT22;2357;47.316;-1.348;2023-07-13T03:53:38;16.90;99.90
4687;DHT22;2357;47.316;-1.348;2023-07-13T03:56:04;16.90;99.90
4687;DHT22;2357;47.316;-1.348;2023-07-13T03:58:34;16.90;99.90
4687;DHT22;2357;47.316;-1.348;2023-07-13T04:01:02;16.90;99.90
4687;DHT22;2357;47.316;-1.348;2023-07-13T04:03:28;16.90;99.90
4687;DHT22;2357;47.316;-1.348;2023-07-13T04:05:58;16.80;99.90
4687;DHT22;2357;47.316;-1.348;2023-07-13T04:08:26;16.90;99.90
4687;DHT22;2357;47.316;-1.348;2023-07-13T04:10:52;16.90;99.90
4687;DHT22;2357;47.316;-1.348;2023-07-13T04:13:17;16.80;99.90
4687;DHT22;2357;47.316;-1.348;2023-07-13T04:15:43;16.80;99.90
4687;DHT22;2357;47.316;-1.348;2023-07-13T04:18:09;16.80;99.90
4687;DHT22;2357;47.316;-1.348;2023-07-13T04:20:34;16.80;99.90
4687;DHT22;2357;47.316;-1.348;2023-07-13T04:23:00;16.70;99.90
4687;DHT22;2357;47.316;-1.348;2023-07-13T04:25:26;16.70;99.90
4687;DHT22;2357;47.316;-1.348;2023-07-13T04:27:53;16.80;99.90
4687;DHT22;2357;47.316;-1.348;2023-07-13T04:30:19;16.70;99.90
4687;DHT22;2357;47.316;-1.348;2023-07-13T04:32:45;16.70;99.90
4687;DHT22;2357;47.316;-1.348;2023-07-13T04:35:11;16.70;99.90
4687;DHT22;2357;47.316;-1.348;2023-07-13T04:37:36;16.70;99.90
4687;DHT22;2357;47.316;-1.348;2023-07-13T04:40:02;16.70;99.90
4687;DHT22;2357;47.316;-1.348;2023-07-13T04:42:29;16.80;99.90
4687;DHT22;2357;47.316;-1.348;2023-07-13T04:44:55;16.70;99.90
4687;DHT22;2357;47.316;-1.348;2023-07-13T04:47:21;16.80;99.90
4687;DHT22;2357;47.316;-1.348;2023-07-13T04:49:46;16.80;99.90
4687;DHT22;2357;47.316;-1.348;2023-07-13T04:52:12;16.80;99.90
4687;DHT22;2357;47.316;-1.348;2023-07-13T04:54:38;16.90;99.90
4687;DHT22;2357;47.316;-1.348;2023-07-13T04:57:04;16.90;99.90
4687;DHT22;2357;47.316;-1.348;2023-07-13T04:59:33;16.90;99.90
4687;DHT22;2357;47.316;-1.348;2023-07-13T05:01:59;16.90;99.90
4687;DHT22;2357;47.316;-1.348;2023-07-13T05:04:25;16.90;99.90
4687;DHT22;2357;47.316;-1.348;2023-07-13T05:06:50;16.90;99.90
4687;DHT22;2357;47.316;-1.348;2023-07-13T05:09:16;16.90;99.90
4687;DHT22;2357;47.316;-1.348;2023-07-13T05:11:43;16.90;99.90
4687;DHT22;2357;47.316;-1.348;2023-07-13T05:14:08;16.90;99.90
4687;DHT22;2357;47.316;-1.348;2023-07-13T05:16:35;17.00;99.90
4687;DHT22;2357;47.316;-1.348;2023-07-13T05:19:01;16.90;99.90
4687;DHT22;2357;47.316;-1.348;2023-07-13T05:21:26;17.00;99.90
4687;DHT22;2357;47.316;-1.348;2023-07-13T05:23:52;17.10;99.90
4687;DHT22;2357;47.316;-1.348;2023-07-13T05:26:18;17.20;99.90
4687;DHT22;2357;47.316;-1.348;2023-07-13T05:28:44;17.00;99.90
4687;DHT22;2357;47.316;-1.348;2023-07-13T05:31:10;17.00;99.90
4687;DHT22;2357;47.316;-1.348;2023-07-13T05:33:36;17.00;99.90
4687;DHT22;2357;47.316;-1.348;2023-07-13T05:36:02;17.10;99.90
4687;DHT22;2357;47.316;-1.348;2023-07-13T05:38:28;17.10;99.90
4687;DHT22;2357;47.316;-1.348;2023-07-13T05:40:55;17.10;99.90
4687;DHT22;2357;47.316;-1.348;2023-07-13T05:43:21;17.00;99.90
4687;DHT22;2357;47.316;-1.348;2023-07-13T05:45:48;17.10;99.90
4687;DHT22;2357;47.316;-1.348;2023-07-13T05:48:14;17.10;99.90
4687;DHT22;2357;47.316;-1.348;2023-07-13T05:50:40;17.10;99.90
4687;DHT22;2357;47.316;-1.348;2023-07-13T05:53:06;17.20;99.90
4687;DHT22;2357;47.316;-1.348;2023-07-13T05:55:31;17.10;99.90
4687;DHT22;2357;47.316;-1.348;2023-07-13T05:57:57;17.00;99.90
4687;DHT22;2357;47.316;-1.348;2023-07-13T06:00:24;17.10;99.90
4687;DHT22;2357;47.316;-1.348;2023-07-13T06:02:50;17.20;99.90
4687;DHT22;2357;47.316;-1.348;2023-07-13T06:05:15;17.10;99.90
4687;DHT22;2357;47.316;-1.348;2023-07-13T06:07:42;17.10;99.90
4687;DHT22;2357;47.316;-1.348;2023-07-13T06:10:07;17.10;99.90
4687;DHT22;2357;47.316;-1.348;2023-07-13T06:12:33;17.20;99.90
4687;DHT22;2357;47.316;-1.348;2023-07-13T06:14:59;17.10;99.90
4687;DHT22;2357;47.316;-1.348;2023-07-13T06:17:24;17.20;99.90
4687;DHT22;2357;47.316;-1.348;2023-07-13T06:19:50;17.20;99.90
4687;DHT22;2357;47.316;-1.348;2023-07-13T06:22:15;17.20;99.90
4687;DHT22;2357;47.316;-1.348;2023-07-13T06:24:41;17.30;99.90
4687;DHT22;2357;47.316;-1.348;2023-07-13T06:27:07;17.30;99.90
4687;DHT22;2357;47.316;-1.348;2023-07-13T06:29:33;17.40;99.90
4687;DHT22;2357;47.316;-1.348;2023-07-13T06:31:58;17.40;99.90
4687;DHT22;2357;47.316;-1.348;2023-07-13T06:34:24;17.40;99.90
4687;DHT22;2357;47.316;-1.348;2023-07-13T06:36:49;17.40;99.90
4687;DHT22;2357;47.316;-1.348;2023-07-13T06:39:15;17.50;99.90
4687;DHT22;2357;47.316;-1.348;2023-07-13T06:41:41;17.50;99.90
4687;DHT22;2357;47.316;-1.348;2023-07-13T06:44:06;17.70;99.90
4687;DHT22;2357;47.316;-1.348;2023-07-13T06:46:32;17.70;99.90
4687;DHT22;2357;47.316;-1.348;2023-07-13T06:48:58;17.80;99.90
4687;DHT22;2357;47.316;-1.348;2023-07-13T06:51:24;17.70;99.90
4687;DHT22;2357;47.316;-1.348;2023-07-13T06:53:51;17.70;99.90
4687;DHT22;2357;47.316;-1.348;2023-07-13T06:56:17;17.70;99.90
4687;DHT22;2357;47.316;-1.348;2023-07-13T06:58:43;17.80;99.90
4687;DHT22;2357;47.316;-1.348;2023-07-13T07:01:09;17.70;99.90
4687;DHT22;2357;47.316;-1.348;2023-07-13T07:03:35;17.70;99.90
4687;DHT22;2357;47.316;-1.348;2023-07-13T07:06:03;17.80;99.90
4687;DHT22;2357;47.316;-1.348;2023-07-13T07:08:31;17.80;99.90
4687;DHT22;2357;47.316;-1.348;2023-07-13T07:10:57;17.90;99.90
4687;DHT22;2357;47.316;-1.348;2023-07-13T07:13:22;18.00;99.90
4687;DHT22;2357;47.316;-1.348;2023-07-13T07:15:49;18.00;99.90
4687;DHT22;2357;47.316;-1.348;2023-07-13T07:18:15;18.00;99.90
4687;DHT22;2357;47.316;-1.348;2023-07-13T07:20:41;18.10;99.90
4687;DHT22;2357;47.316;-1.348;2023-07-13T07:23:07;18.10;99.90
4687;DHT22;2357;47.316;-1.348;2023-07-13T07:25:32;18.10;99.90
4687;DHT22;2357;47.316;-1.348;2023-07-13T07:28:00;18.20;99.90
4687;DHT22;2357;47.316;-1.348;2023-07-13T07:30:26;18.30;99.90
4687;DHT22;2357;47.316;-1.348;2023-07-13T07:32:51;18.40;99.90
4687;DHT22;2357;47.316;-1.348;2023-07-13T07:35:17;18.40;99.90
4687;DHT22;2357;47.316;-1.348;2023-07-13T07:37:42;18.50;99.90
4687;DHT22;2357;47.316;-1.348;2023-07-13T07:40:08;18.50;99.90
4687;DHT22;2357;47.316;-1.348;2023-07-13T07:42:34;18.50;99.90
4687;DHT22;2357;47.316;-1.348;2023-07-13T07:44:59;18.70;99.90
4687;DHT22;2357;47.316;-1.348;2023-07-13T07:47:26;18.70;99.90
4687;DHT22;2357;47.316;-1.348;2023-07-13T07:49:52;18.80;99.90
4687;DHT22;2357;47.316;-1.348;2023-07-13T07:52:18;19.00;99.90
4687;DHT22;2357;47.316;-1.348;2023-07-13T07:54:44;19.20;99.90
4687;DHT22;2357;47.316;-1.348;2023-07-13T07:57:09;19.30;99.90
4687;DHT22;2357;47.316;-1.348;2023-07-13T07:59:36;19.30;99.90
4687;DHT22;2357;47.316;-1.348;2023-07-13T08:02:02;19.50;99.90
4687;DHT22;2357;47.316;-1.348;2023-07-13T08:04:28;19.50;99.90
4687;DHT22;2357;47.316;-1.348;2023-07-13T08:06:53;19.50;99.90
4687;DHT22;2357;47.316;-1.348;2023-07-13T08:09:21;19.60;99.90
4687;DHT22;2357;47.316;-1.348;2023-07-13T08:11:47;19.50;99.90
4687;DHT22;2357;47.316;-1.348;2023-07-13T08:14:12;19.60;99.90
4687;DHT22;2357;47.316;-1.348;2023-07-13T08:16:38;19.70;99.90
4687;DHT22;2357;47.316;-1.348;2023-07-13T08:19:04;19.70;99.90
4687;DHT22;2357;47.316;-1.348;2023-07-13T08:21:31;20.00;99.90
4687;DHT22;2357;47.316;-1.348;2023-07-13T08:23:58;19.80;99.90
4687;DHT22;2357;47.316;-1.348;2023-07-13T08:26:24;19.90;99.90
4687;DHT22;2357;47.316;-1.348;2023-07-13T08:28:49;20.00;99.90
4687;DHT22;2357;47.316;-1.348;2023-07-13T08:31:15;20.00;99.90
4687;DHT22;2357;47.316;-1.348;2023-07-13T08:33:41;20.00;99.90
4687;DHT22;2357;47.316;-1.348;2023-07-13T08:36:07;20.00;99.90
4687;DHT22;2357;47.316;-1.348;2023-07-13T08:38:32;20.10;99.90
4687;DHT22;2357;47.316;-1.348;2023-07-13T08:40:58;20.10;99.90
4687;DHT22;2357;47.316;-1.348;2023-07-13T08:43:34;20.30;99.90
4687;DHT22;2357;47.316;-1.348;2023-07-13T08:48:44;20.70;99.90
4687;DHT22;2357;47.316;-1.348;2023-07-13T08:51:22;20.70;99.90
4687;DHT22;2357;47.316;-1.348;2023-07-13T08:53:52;20.60;99.90
4687;DHT22;2357;47.316;-1.348;2023-07-13T08:56:23;20.60;99.90
4687;DHT22;2357;47.316;-1.348;2023-07-13T08:59:02;20.60;99.90
4687;DHT22;2357;47.316;-1.348;2023-07-13T09:04:29;20.50;99.90
4687;DHT22;2357;47.316;-1.348;2023-07-13T09:07:05;20.50;99.90
4687;DHT22;2357;47.316;-1.348;2023-07-13T09:15:51;20.40;99.90
4687;DHT22;2357;47.316;-1.348;2023-07-13T09:18:31;20.50;99.90
4687;DHT22;2357;47.316;-1.348;2023-07-13T09:21:03;20.60;99.90
4687;DHT22;2357;47.316;-1.348;2023-07-13T09:23:30;20.90;99.90
4687;DHT22;2357;47.316;-1.348;2023-07-13T09:26:07;21.20;99.90
4687;DHT22;2357;47.316;-1.348;2023-07-13T09:28:42;21.30;99.90
4687;DHT22;2357;47.316;-1.348;2023-07-13T09:31:15;21.50;99.90
4687;DHT22;2357;47.316;-1.348;2023-07-13T09:33:42;21.60;99.90
4687;DHT22;2357;47.316;-1.348;2023-07-13T09:39:04;21.10;99.90
4687;DHT22;2357;47.316;-1.348;2023-07-13T09:41:40;21.00;99.90
4687;DHT22;2357;47.316;-1.348;2023-07-13T09:44:09;21.00;99.90
4687;DHT22;2357;47.316;-1.348;2023-07-13T09:46:35;20.90;99.90
4687;DHT22;2357;47.316;-1.348;2023-07-13T09:49:01;20.90;99.90
4687;DHT22;2357;47.316;-1.348;2023-07-13T09:51:26;20.70;99.90
4687;DHT22;2357;47.316;-1.348;2023-07-13T09:53:53;20.70;99.90
4687;DHT22;2357;47.316;-1.348;2023-07-13T09:56:26;20.60;99.90
4687;DHT22;2357;47.316;-1.348;2023-07-13T09:58:52;20.60;99.90
4687;DHT22;2357;47.316;-1.348;2023-07-13T10:01:35;20.60;99.90
4687;DHT22;2357;47.316;-1.348;2023-07-13T10:04:02;20.60;99.90
4687;DHT22;2357;47.316;-1.348;2023-07-13T10:06:36;20.60;99.90
4687;DHT22;2357;47.316;-1.348;2023-07-13T10:09:02;20.70;99.90
4687;DHT22;2357;47.316;-1.348;2023-07-13T10:11:29;20.80;99.90
4687;DHT22;2357;47.316;-1.348;2023-07-13T10:14:00;20.80;99.90
4687;DHT22;2357;47.316;-1.348;2023-07-13T10:16:32;21.00;99.90
4687;DHT22;2357;47.316;-1.348;2023-07-13T10:19:02;21.20;99.90
4687;DHT22;2357;47.316;-1.348;2023-07-13T10:21:34;21.50;99.90
4687;DHT22;2357;47.316;-1.348;2023-07-13T10:24:15;21.80;99.90
4687;DHT22;2357;47.316;-1.348;2023-07-13T10:26:50;21.90;99.90
4687;DHT22;2357;47.316;-1.348;2023-07-13T10:29:17;21.90;99.90
4687;DHT22;2357;47.316;-1.348;2023-07-13T10:31:45;21.90;99.90
4687;DHT22;2357;47.316;-1.348;2023-07-13T10:34:11;22.30;99.90
4687;DHT22;2357;47.316;-1.348;2023-07-13T10:36:45;22.40;99.90
4687;DHT22;2357;47.316;-1.348;2023-07-13T10:39:17;22.70;99.90
4687;DHT22;2357;47.316;-1.348;2023-07-13T10:41:44;23.10;99.90
4687;DHT22;2357;47.316;-1.348;2023-07-13T10:44:20;22.80;99.90
4687;DHT22;2357;47.316;-1.348;2023-07-13T10:46:47;23.00;99.90
4687;DHT22;2357;47.316;-1.348;2023-07-13T10:49:14;23.10;99.90
4687;DHT22;2357;47.316;-1.348;2023-07-13T10:51:40;23.20;99.90
4687;DHT22;2357;47.316;-1.348;2023-07-13T10:54:10;23.90;99.90
4687;DHT22;2357;47.316;-1.348;2023-07-13T10:56:40;24.10;99.90
4687;DHT22;2357;47.316;-1.348;2023-07-13T10:59:16;24.20;99.90
4687;DHT22;2357;47.316;-1.348;2023-07-13T11:02:38;23.80;99.90
4687;DHT22;2357;47.316;-1.348;2023-07-13T11:04:47;23.60;99.90
4687;DHT22;2357;47.316;-1.348;2023-07-13T11:07:21;23.60;99.90
4687;DHT22;2357;47.316;-1.348;2023-07-13T11:09:53;23.30;99.90
4687;DHT22;2357;47.316;-1.348;2023-07-13T11:17:38;23.00;99.90
4687;DHT22;2357;47.316;-1.348;2023-07-13T11:25:34;22.90;99.90
4687;DHT22;2357;47.316;-1.348;2023-07-13T11:30:41;23.90;99.90
4687;DHT22;2357;47.316;-1.348;2023-07-13T11:38:37;24.10;99.90
4687;DHT22;2357;47.316;-1.348;2023-07-13T11:41:07;23.50;99.90
4687;DHT22;2357;47.316;-1.348;2023-07-13T11:43:33;23.60;99.90
4687;DHT22;2357;47.316;-1.348;2023-07-13T11:48:40;23.60;99.90
4687;DHT22;2357;47.316;-1.348;2023-07-13T11:51:19;23.90;99.90
4687;DHT22;2357;47.316;-1.348;2023-07-13T11:53:48;24.50;99.90
4687;DHT22;2357;47.316;-1.348;2023-07-13T11:56:15;24.50;99.90
4687;DHT22;2357;47.316;-1.348;2023-07-13T11:58:41;24.40;99.90
4687;DHT22;2357;47.316;-1.348;2023-07-13T12:01:20;24.10;99.90
4687;DHT22;2357;47.316;-1.348;2023-07-13T12:03:48;24.00;99.90
4687;DHT22;2357;47.316;-1.348;2023-07-13T12:06:29;24.00;99.90
4687;DHT22;2357;47.316;-1.348;2023-07-13T12:09:08;24.40;99.90
4687;DHT22;2357;47.316;-1.348;2023-07-13T12:11:40;24.00;99.90
4687;DHT22;2357;47.316;-1.348;2023-07-13T12:14:12;24.00;99.90
4687;DHT22;2357;47.316;-1.348;2023-07-13T12:16:37;24.00;99.90
4687;DHT22;2357;47.316;-1.348;2023-07-13T12:19:03;23.80;99.90
4687;DHT22;2357;47.316;-1.348;2023-07-13T12:21:36;24.00;99.90
4687;DHT22;2357;47.316;-1.348;2023-07-13T12:24:03;24.20;99.90
4687;DHT22;2357;47.316;-1.348;2023-07-13T12:26:30;25.00;99.90
4687;DHT22;2357;47.316;-1.348;2023-07-13T12:28:58;25.40;99.90
4687;DHT22;2357;47.316;-1.348;2023-07-13T12:31:25;25.20;99.90
4687;DHT22;2357;47.316;-1.348;2023-07-13T12:36:31;24.60;99.90
4687;DHT22;2357;47.316;-1.348;2023-07-13T12:39:00;24.40;99.90
4687;DHT22;2357;47.316;-1.348;2023-07-13T12:41:29;24.30;99.90
4687;DHT22;2357;47.316;-1.348;2023-07-13T12:43:55;24.10;99.90
4687;DHT22;2357;47.316;-1.348;2023-07-13T12:46:24;23.80;99.90
4687;DHT22;2357;47.316;-1.348;2023-07-13T12:48:52;24.70;99.90
4687;DHT22;2357;47.316;-1.348;2023-07-13T12:51:22;24.90;99.90
4687;DHT22;2357;47.316;-1.348;2023-07-13T12:53:56;24.80;99.90
4687;DHT22;2357;47.316;-1.348;2023-07-13T12:56:24;25.60;99.90
4687;DHT22;2357;47.316;-1.348;2023-07-13T12:58:58;25.80;99.90
4687;DHT22;2357;47.316;-1.348;2023-07-13T13:01:27;25.40;99.90
4687;DHT22;2357;47.316;-1.348;2023-07-13T13:03:53;24.90;99.90
4687;DHT22;2357;47.316;-1.348;2023-07-13T13:06:23;25.10;99.90
4687;DHT22;2357;47.316;-1.348;2023-07-13T13:08:52;25.60;99.90
4687;DHT22;2357;47.316;-1.348;2023-07-13T13:11:19;26.30;99.90
4687;DHT22;2357;47.316;-1.348;2023-07-13T13:13:45;26.40;99.90
4687;DHT22;2357;47.316;-1.348;2023-07-13T13:18:53;25.20;99.90
4687;DHT22;2357;47.316;-1.348;2023-07-13T13:21:19;25.50;99.90
4687;DHT22;2357;47.316;-1.348;2023-07-13T13:23:45;25.90;99.90
4687;DHT22;2357;47.316;-1.348;2023-07-13T13:26:15;26.20;99.90
4687;DHT22;2357;47.316;-1.348;2023-07-13T13:28:42;26.60;99.90
4687;DHT22;2357;47.316;-1.348;2023-07-13T13:31:10;26.60;99.90
4687;DHT22;2357;47.316;-1.348;2023-07-13T13:33:39;26.60;99.90
4687;DHT22;2357;47.316;-1.348;2023-07-13T13:36:19;26.80;99.90
4687;DHT22;2357;47.316;-1.348;2023-07-13T13:38:45;27.00;99.90
4687;DHT22;2357;47.316;-1.348;2023-07-13T13:41:13;26.30;99.90
4687;DHT22;2357;47.316;-1.348;2023-07-13T13:43:39;26.10;99.90
4687;DHT22;2357;47.316;-1.348;2023-07-13T13:46:17;26.30;99.90
4687;DHT22;2357;47.316;-1.348;2023-07-13T13:48:44;26.50;99.90
4687;DHT22;2357;47.316;-1.348;2023-07-13T13:51:20;26.20;99.90
4687;DHT22;2357;47.316;-1.348;2023-07-13T13:53:47;25.60;99.90
4687;DHT22;2357;47.316;-1.348;2023-07-13T13:56:14;25.70;99.90
4687;DHT22;2357;47.316;-1.348;2023-07-13T13:58:40;25.50;99.90
4687;DHT22;2357;47.316;-1.348;2023-07-13T14:01:19;26.20;99.90
4687;DHT22;2357;47.316;-1.348;2023-07-13T14:03:46;26.50;99.90
4687;DHT22;2357;47.316;-1.348;2023-07-13T14:06:15;26.80;99.90
4687;DHT22;2357;47.316;-1.348;2023-07-13T14:08:42;27.30;99.90
4687;DHT22;2357;47.316;-1.348;2023-07-13T14:11:12;27.30;99.90
4687;DHT22;2357;47.316;-1.348;2023-07-13T14:13:42;27.20;99.90
4687;DHT22;2357;47.316;-1.348;2023-07-13T14:16:15;27.10;99.90
4687;DHT22;2357;47.316;-1.348;2023-07-13T14:18:46;26.50;99.90
4687;DHT22;2357;47.316;-1.348;2023-07-13T14:21:20;26.40;99.90
4687;DHT22;2357;47.316;-1.348;2023-07-13T14:23:47;26.10;99.90
4687;DHT22;2357;47.316;-1.348;2023-07-13T14:26:21;26.00;99.90
4687;DHT22;2357;47.316;-1.348;2023-07-13T14:28:51;25.90;99.90
4687;DHT22;2357;47.316;-1.348;2023-07-13T14:31:17;25.80;99.90
4687;DHT22;2357;47.316;-1.348;2023-07-13T14:33:44;26.70;99.90
4687;DHT22;2357;47.316;-1.348;2023-07-13T14:38:50;27.10;99.90
4687;DHT22;2357;47.316;-1.348;2023-07-13T14:41:16;27.00;99.90
4687;DHT22;2357;47.316;-1.348;2023-07-13T14:43:42;27.40;99.90
4687;DHT22;2357;47.316;-1.348;2023-07-13T14:46:26;27.10;99.90
4687;DHT22;2357;47.316;-1.348;2023-07-13T14:49:02;26.80;99.90
4687;DHT22;2357;47.316;-1.348;2023-07-13T14:51:29;26.80;99.90
4687;DHT22;2357;47.316;-1.348;2023-07-13T14:53:55;26.80;99.90
4687;DHT22;2357;47.316;-1.348;2023-07-13T14:56:21;26.80;99.90
4687;DHT22;2357;47.316;-1.348;2023-07-13T14:58:47;27.10;99.90
4687;DHT22;2357;47.316;-1.348;2023-07-13T15:01:14;26.50;99.90
4687;DHT22;2357;47.316;-1.348;2023-07-13T15:03:46;27.10;99.90
4687;DHT22;2357;47.316;-1.348;2023-07-13T15:06:13;27.10;99.90
4687;DHT22;2357;47.316;-1.348;2023-07-13T15:08:39;27.00;99.90
4687;DHT22;2357;47.316;-1.348;2023-07-13T15:11:07;27.30;99.90
4687;DHT22;2357;47.316;-1.348;2023-07-13T15:13:33;26.90;99.90
4687;DHT22;2357;47.316;-1.348;2023-07-13T15:16:00;26.50;99.90
4687;DHT22;2357;47.316;-1.348;2023-07-13T15:18:26;27.20;99.90
4687;DHT22;2357;47.316;-1.348;2023-07-13T15:20:53;27.50;99.90
4687;DHT22;2357;47.316;-1.348;2023-07-13T15:23:21;27.40;99.90
4687;DHT22;2357;47.316;-1.348;2023-07-13T15:25:48;27.80;99.90
4687;DHT22;2357;47.316;-1.348;2023-07-13T15:28:15;28.20;99.90
4687;DHT22;2357;47.316;-1.348;2023-07-13T15:30:46;27.70;99.90
4687;DHT22;2357;47.316;-1.348;2023-07-13T15:35:48;27.50;99.90
4687;DHT22;2357;47.316;-1.348;2023-07-13T15:38:20;27.50;99.90
4687;DHT22;2357;47.316;-1.348;2023-07-13T15:40:47;27.60;99.90
4687;DHT22;2357;47.316;-1.348;2023-07-13T15:43:14;27.90;99.90
4687;DHT22;2357;47.316;-1.348;2023-07-13T15:45:41;27.90;99.90
4687;DHT22;2357;47.316;-1.348;2023-07-13T15:48:20;27.80;99.90
4687;DHT22;2357;47.316;-1.348;2023-07-13T15:50:51;27.50;99.90
4687;DHT22;2357;47.316;-1.348;2023-07-13T15:53:29;27.10;99.90
4687;DHT22;2357;47.316;-1.348;2023-07-13T15:55:55;27.10;99.90
4687;DHT22;2357;47.316;-1.348;2023-07-13T15:58:21;27.40;99.90
4687;DHT22;2357;47.316;-1.348;2023-07-13T16:00:47;27.70;99.90
4687;DHT22;2357;47.316;-1.348;2023-07-13T16:03:16;27.50;99.90
4687;DHT22;2357;47.316;-1.348;2023-07-13T16:05:42;27.60;99.90
4687;DHT22;2357;47.316;-1.348;2023-07-13T16:08:26;27.90;99.90
4687;DHT22;2357;47.316;-1.348;2023-07-13T16:10:52;28.00;99.90
4687;DHT22;2357;47.316;-1.348;2023-07-13T16:13:20;27.70;99.90
4687;DHT22;2357;47.316;-1.348;2023-07-13T16:15:47;27.70;99.90
4687;DHT22;2357;47.316;-1.348;2023-07-13T16:18:13;28.10;99.90
4687;DHT22;2357;47.316;-1.348;2023-07-13T16:20:43;27.30;99.90
4687;DHT22;2357;47.316;-1.348;2023-07-13T16:23:12;27.50;99.90
4687;DHT22;2357;47.316;-1.348;2023-07-13T16:25:39;27.80;99.90
4687;DHT22;2357;47.316;-1.348;2023-07-13T16:28:06;28.30;99.90
4687;DHT22;2357;47.316;-1.348;2023-07-13T16:30:32;28.00;99.90
4687;DHT22;2357;47.316;-1.348;2023-07-13T16:33:03;27.60;99.90
4687;DHT22;2357;47.316;-1.348;2023-07-13T16:35:37;27.40;99.90
4687;DHT22;2357;47.316;-1.348;2023-07-13T16:38:15;27.80;99.90